createdAt,value
2017-08-15T00:02:19.027Z,5.50
2017-08-15T00:04:46.576Z,4.77
2017-08-15T00:07:14.170Z,5.10
2017-08-15T00:09:42.483Z,5.00
2017-08-15T00:12:10.065Z,5.57
2017-08-15T00:14:37.623Z,5.00
2017-08-15T00:17:05.200Z,4.50
2017-08-15T00:19:32.793Z,3.30
2017-08-15T00:22:00.343Z,4.80
2017-08-15T00:24:27.906Z,5.17
2017-08-15T00:26:55.497Z,5.60
2017-08-15T00:29:23.059Z,4.60
2017-08-15T00:31:50.638Z,4.80
2017-08-15T00:34:18.241Z,4.47
2017-08-15T00:36:46.558Z,4.57
2017-08-15T00:39:14.172Z,3.83
2017-08-15T00:41:42.495Z,5.07
2017-08-15T00:44:10.073Z,4.20
2017-08-15T00:46:37.666Z,4.40
2017-08-15T00:49:05.245Z,4.63
2017-08-15T00:51:32.836Z,5.83
2017-08-15T00:54:00.401Z,4.70
2017-08-15T00:56:27.977Z,4.50
2017-08-15T00:58:55.549Z,4.03
2017-08-15T01:01:23.133Z,5.47
2017-08-15T01:03:50.715Z,5.53
2017-08-15T01:06:18.304Z,5.90
2017-08-15T01:08:45.897Z,5.30
2017-08-15T01:11:13.488Z,4.53
2017-08-15T01:13:41.037Z,4.80
2017-08-15T01:16:09.396Z,5.47
2017-08-15T01:18:36.959Z,4.70
2017-08-15T01:21:04.521Z,4.47
2017-08-15T01:23:32.115Z,3.47
2017-08-15T01:25:59.667Z,4.10
2017-08-15T01:28:28.020Z,5.00
2017-08-15T01:30:55.582Z,5.00
2017-08-15T01:33:23.205Z,4.80
2017-08-15T01:35:50.754Z,5.03
2017-08-15T01:38:18.301Z,5.53
2017-08-15T01:40:45.894Z,4.87
2017-08-15T01:43:13.487Z,4.07
2017-08-15T01:45:41.035Z,5.57
2017-08-15T01:48:08.598Z,4.87
2017-08-15T01:50:36.191Z,4.60
2017-08-15T01:53:03.758Z,5.37
2017-08-15T01:55:31.317Z,4.90
2017-08-15T01:57:58.909Z,5.23
2017-08-15T02:00:26.458Z,4.30
2017-08-15T02:02:54.004Z,4.00
2017-08-15T02:05:21.598Z,4.47
2017-08-15T02:07:49.162Z,5.13
2017-08-15T02:10:16.708Z,4.90
2017-08-15T02:12:44.306Z,4.63
2017-08-15T02:15:11.864Z,4.60
2017-08-15T02:17:39.455Z,4.97
2017-08-15T02:20:07.006Z,5.63
2017-08-15T02:22:34.567Z,4.63
2017-08-15T02:25:02.161Z,5.03
2017-08-15T02:27:29.709Z,4.80
2017-08-15T02:29:57.286Z,5.10
2017-08-15T02:32:24.849Z,5.23
2017-08-15T02:34:52.448Z,5.17
2017-08-15T02:37:20.011Z,4.67
2017-08-15T02:39:48.332Z,5.20
2017-08-15T02:42:15.910Z,6.10
2017-08-15T02:44:43.478Z,5.80
2017-08-15T02:47:11.067Z,5.80
2017-08-15T02:49:39.395Z,5.47
2017-08-15T02:52:06.987Z,4.37
2017-08-15T02:54:34.534Z,3.93
2017-08-15T02:57:02.099Z,3.80
2017-08-15T02:59:29.690Z,4.83
2017-08-15T03:01:58.020Z,5.13
2017-08-15T03:04:25.597Z,4.90
2017-08-15T03:06:53.145Z,5.07
2017-08-15T03:09:20.738Z,6.47
2017-08-15T03:11:48.302Z,5.43
2017-08-15T03:14:15.863Z,4.83
2017-08-15T03:16:43.456Z,4.83
2017-08-15T03:19:11.003Z,5.93
2017-08-15T03:21:38.597Z,4.77
2017-08-15T03:24:06.146Z,4.70
2017-08-15T03:26:33.706Z,4.87
2017-08-15T03:29:01.303Z,6.07
2017-08-15T03:31:28.869Z,5.00
2017-08-15T03:33:56.455Z,4.27
2017-08-15T03:36:24.019Z,4.53
2017-08-15T03:38:51.617Z,5.00
2017-08-15T03:41:19.161Z,4.77
2017-08-15T03:43:46.738Z,4.63
2017-08-15T03:46:14.285Z,4.57
2017-08-15T03:48:41.877Z,4.57
2017-08-15T03:51:09.439Z,4.70
2017-08-15T03:53:36.988Z,5.37
2017-08-15T03:56:04.566Z,4.10
2017-08-15T03:58:32.120Z,5.10
2017-08-15T04:00:59.707Z,4.80
2017-08-15T04:03:28.034Z,5.03
2017-08-15T04:05:55.612Z,5.27
2017-08-15T04:08:23.161Z,5.57
2017-08-15T04:10:50.753Z,5.03
2017-08-15T04:13:18.318Z,4.57
2017-08-15T04:15:45.874Z,4.33
2017-08-15T04:18:13.456Z,4.50
2017-08-15T04:20:41.771Z,4.70
2017-08-15T04:23:09.363Z,4.70
2017-08-15T04:25:36.910Z,5.20
2017-08-15T04:28:04.507Z,4.70
2017-08-15T04:30:32.862Z,4.70
2017-08-15T04:33:00.425Z,4.40
2017-08-15T04:35:28.018Z,4.80
2017-08-15T04:37:55.580Z,5.60
2017-08-15T04:40:25.740Z,4.50
2017-08-15T04:42:54.519Z,4.57
2017-08-15T04:45:22.112Z,4.53
2017-08-15T04:47:49.658Z,4.70
2017-08-15T04:50:17.236Z,6.90
2017-08-15T04:52:44.814Z,3.33
2017-08-15T04:55:13.128Z,4.80
2017-08-15T04:57:40.722Z,3.97
2017-08-15T05:00:08.268Z,4.23
2017-08-15T05:02:35.847Z,4.20
2017-08-15T05:05:03.425Z,3.63
2017-08-15T05:07:31.753Z,4.87
2017-08-15T05:09:59.376Z,4.40
2017-08-15T05:12:27.697Z,4.67
2017-08-15T05:14:55.252Z,4.80
2017-08-15T05:17:22.835Z,4.77
2017-08-15T05:19:50.392Z,4.87
2017-08-15T05:22:17.984Z,4.20
2017-08-15T05:24:46.304Z,4.53
2017-08-15T05:27:13.862Z,4.43
2017-08-15T05:29:41.454Z,4.67
2017-08-15T05:32:09.051Z,5.37
2017-08-15T05:34:37.355Z,4.37
2017-08-15T05:37:04.910Z,4.13
2017-08-15T05:39:32.503Z,4.90
2017-08-15T05:42:00.049Z,6.40
2017-08-15T05:44:27.645Z,4.60
2017-08-15T05:46:55.250Z,5.50
2017-08-15T05:49:22.802Z,4.63
2017-08-15T05:51:50.361Z,5.10
2017-08-15T05:54:17.958Z,4.50
2017-08-15T05:56:45.523Z,4.80
2017-08-15T05:59:13.149Z,5.17
2017-08-15T06:01:40.732Z,4.73
2017-08-15T06:04:08.326Z,4.03
2017-08-15T06:06:35.892Z,4.50
2017-08-15T06:09:03.467Z,4.67
2017-08-15T06:11:31.838Z,5.40
2017-08-15T06:14:00.167Z,4.80
2017-08-15T06:16:27.732Z,4.80
2017-08-15T06:18:55.321Z,6.13
2017-08-15T06:21:22.870Z,4.60
2017-08-15T06:23:50.464Z,4.97
2017-08-15T06:26:18.791Z,4.17
2017-08-15T06:28:46.359Z,4.53
2017-08-15T06:31:13.962Z,4.10
2017-08-15T06:33:41.524Z,4.17
2017-08-15T06:36:09.117Z,6.67
2017-08-15T06:38:36.679Z,5.50
2017-08-15T06:41:04.257Z,5.27
2017-08-15T06:43:31.804Z,4.17
2017-08-15T06:45:59.379Z,4.50
2017-08-15T06:48:26.932Z,3.90
2017-08-15T06:50:54.525Z,4.27
2017-08-15T06:53:22.086Z,4.67
2017-08-15T06:55:49.680Z,3.93
2017-08-15T06:58:17.259Z,4.70
2017-08-15T07:00:44.811Z,5.30
2017-08-15T07:03:12.370Z,4.23
2017-08-15T07:05:39.965Z,4.23
2017-08-15T07:08:07.508Z,4.57
2017-08-15T07:10:35.102Z,4.50
2017-08-15T07:13:02.665Z,4.37
2017-08-15T07:15:30.258Z,4.23
2017-08-15T07:17:57.806Z,4.00
2017-08-15T07:20:25.374Z,4.03
2017-08-15T07:22:52.975Z,4.10
2017-08-15T07:25:20.524Z,3.90
2017-08-15T07:27:48.087Z,3.67
2017-08-15T07:30:15.674Z,4.53
2017-08-15T07:32:43.228Z,3.70
2017-08-15T07:35:10.805Z,3.53
2017-08-15T07:37:38.382Z,3.90
2017-08-15T07:40:05.931Z,3.10
2017-08-15T07:42:33.521Z,3.30
2017-08-15T07:45:01.066Z,3.30
2017-08-15T07:47:28.619Z,3.47
2017-08-15T07:49:56.212Z,3.60
2017-08-15T07:52:23.760Z,3.97
2017-08-15T07:54:51.353Z,4.30
2017-08-15T07:57:18.901Z,3.50
2017-08-15T07:59:46.494Z,3.70
2017-08-15T08:02:14.057Z,3.20
2017-08-15T08:04:41.619Z,3.40
2017-08-15T08:07:09.197Z,3.13
2017-08-15T08:09:36.759Z,3.57
2017-08-15T08:12:04.938Z,4.17
2017-08-15T08:14:33.266Z,4.07
2017-08-15T08:17:00.859Z,3.80
2017-08-15T08:19:30.266Z,4.30
2017-08-15T08:21:57.814Z,4.63
2017-08-15T08:24:25.406Z,3.87
2017-08-15T08:26:52.969Z,4.80
2017-08-15T08:29:20.533Z,5.30
2017-08-15T08:31:48.125Z,4.10
2017-08-15T08:34:15.674Z,4.73
2017-08-15T08:36:43.229Z,5.20
2017-08-15T08:39:10.815Z,4.60
2017-08-15T08:41:38.377Z,4.80
2017-08-15T08:44:05.926Z,4.93
2017-08-15T08:46:33.518Z,5.10
2017-08-15T08:49:01.064Z,5.00
2017-08-15T08:51:28.645Z,5.00
2017-08-15T08:53:56.190Z,5.20
2017-08-15T08:56:23.789Z,6.17
2017-08-15T08:58:52.148Z,6.00
2017-08-15T09:01:19.704Z,6.63
2017-08-15T09:03:48.048Z,5.17
2017-08-15T09:06:15.641Z,5.23
2017-08-15T09:08:44.015Z,4.90
2017-08-15T09:11:11.613Z,5.20
2017-08-15T09:13:39.184Z,5.97
2017-08-15T09:16:06.777Z,5.40
2017-08-15T09:18:34.394Z,6.43
2017-08-15T09:21:01.948Z,5.73
2017-08-15T09:23:29.510Z,6.03
2017-08-15T09:25:57.118Z,4.80
2017-08-15T09:28:24.687Z,5.80
2017-08-15T09:30:52.278Z,5.67
2017-08-15T09:33:20.587Z,5.90
2017-08-15T09:35:48.194Z,4.80
2017-08-15T09:38:15.758Z,4.90
2017-08-15T09:40:43.320Z,5.10
2017-08-15T09:43:10.918Z,5.10
2017-08-15T09:45:38.476Z,5.60
2017-08-15T09:48:06.017Z,5.47
2017-08-15T09:50:33.601Z,5.20
2017-08-15T09:53:01.154Z,7.03
2017-08-15T09:55:28.742Z,5.80
2017-08-15T09:57:56.305Z,5.33
2017-08-15T10:00:23.871Z,6.73
2017-08-15T10:02:51.468Z,6.67
2017-08-15T10:05:19.821Z,6.53
2017-08-15T10:07:47.413Z,7.07
2017-08-15T10:10:17.088Z,7.13
2017-08-15T10:12:49.461Z,6.30
2017-08-15T10:15:17.022Z,6.33
2017-08-15T10:17:44.639Z,6.23
2017-08-15T10:20:12.202Z,6.10
2017-08-15T10:22:39.750Z,5.37
2017-08-15T10:25:07.342Z,5.70
2017-08-15T10:27:34.936Z,6.27
2017-08-15T10:30:02.528Z,5.70
2017-08-15T10:32:30.122Z,5.00
2017-08-15T10:34:57.713Z,5.70
2017-08-15T10:37:25.266Z,5.07
2017-08-15T10:39:52.809Z,4.90
2017-08-15T10:42:20.402Z,6.20
2017-08-15T10:44:47.949Z,6.20
2017-08-15T10:47:15.542Z,7.23
2017-08-15T10:49:43.902Z,5.63
2017-08-15T10:52:12.304Z,5.87
2017-08-15T10:54:40.618Z,5.73
2017-08-15T10:57:09.979Z,6.00
2017-08-15T10:59:38.308Z,5.73
2017-08-15T11:02:06.695Z,5.67
2017-08-15T11:04:34.274Z,5.50
2017-08-15T11:07:01.837Z,6.03
2017-08-15T11:09:29.430Z,5.70
2017-08-15T11:11:57.022Z,6.20
2017-08-15T11:14:24.584Z,6.93
2017-08-15T11:16:52.143Z,6.17
2017-08-15T11:19:19.725Z,6.47
2017-08-15T11:21:47.280Z,5.93
2017-08-15T11:24:14.865Z,6.03
2017-08-15T11:26:42.430Z,6.13
2017-08-15T11:29:10.757Z,5.60
2017-08-15T11:31:38.351Z,6.30
2017-08-15T11:34:05.914Z,6.70
2017-08-15T11:36:33.508Z,6.20
2017-08-15T11:39:01.099Z,6.07
2017-08-15T11:41:28.662Z,6.20
2017-08-15T11:43:56.224Z,6.80
2017-08-15T11:46:23.802Z,5.50
2017-08-15T11:48:51.365Z,6.30
2017-08-15T11:51:18.958Z,6.53
2017-08-15T11:53:47.286Z,6.80
2017-08-15T11:56:14.878Z,7.23
2017-08-15T11:58:43.206Z,7.07
2017-08-15T12:01:10.800Z,6.10
2017-08-15T12:03:38.362Z,7.23
2017-08-15T12:06:05.935Z,6.33
2017-08-15T12:08:34.284Z,5.90
2017-08-15T12:11:01.876Z,6.37
2017-08-15T12:13:29.427Z,5.57
2017-08-15T12:15:57.015Z,5.30
2017-08-15T12:18:25.328Z,5.00
2017-08-15T12:20:52.922Z,4.70
2017-08-15T12:23:20.514Z,4.20
2017-08-15T12:25:48.082Z,4.20
2017-08-15T12:28:15.671Z,4.83
2017-08-15T12:30:43.219Z,4.00
2017-08-15T12:33:10.782Z,4.60
2017-08-15T12:35:38.373Z,4.53
2017-08-15T12:38:05.922Z,4.47
2017-08-15T12:40:33.499Z,4.50
2017-08-15T12:43:01.047Z,3.73
2017-08-15T12:45:28.645Z,4.10
2017-08-15T12:47:56.968Z,4.10
2017-08-15T12:50:24.546Z,3.37
2017-08-15T12:52:52.138Z,4.70
2017-08-15T12:55:19.687Z,4.27
2017-08-15T12:57:47.250Z,3.73
2017-08-15T13:00:14.845Z,3.90
2017-08-15T13:02:42.404Z,3.77
2017-08-15T13:05:10.023Z,3.90
2017-08-15T13:07:37.580Z,3.77
2017-08-15T13:10:05.169Z,4.63
2017-08-15T13:12:33.497Z,4.40
2017-08-15T13:15:01.090Z,3.83
2017-08-15T13:17:28.647Z,4.70
2017-08-15T13:19:56.252Z,4.17
2017-08-15T13:22:23.814Z,4.27
2017-08-15T13:24:51.395Z,4.60
2017-08-15T13:27:19.008Z,4.57
2017-08-15T13:29:47.337Z,4.10
2017-08-15T13:32:14.902Z,4.00
2017-08-15T13:34:42.536Z,4.30
2017-08-15T13:37:10.150Z,4.97
2017-08-15T13:39:55.321Z,4.30
2017-08-15T13:42:22.913Z,4.70
2017-08-15T13:44:50.475Z,5.47
2017-08-15T13:47:18.593Z,4.90
2017-08-15T13:49:46.156Z,4.90
2017-08-15T13:52:13.750Z,5.30
2017-08-15T13:54:42.076Z,4.80
2017-08-15T13:57:15.566Z,5.03
2017-08-15T13:59:43.176Z,5.30
2017-08-15T14:02:10.736Z,5.10
2017-08-15T14:04:38.303Z,5.43
2017-08-15T14:07:06.658Z,5.60
2017-08-15T14:09:34.221Z,5.20
2017-08-15T14:12:01.812Z,4.97
2017-08-15T14:14:30.127Z,5.83
2017-08-15T14:16:57.719Z,4.73
2017-08-15T14:19:25.311Z,4.73
2017-08-15T14:21:53.625Z,6.30
2017-08-15T14:24:21.218Z,5.00
2017-08-15T14:26:48.781Z,5.70
2017-08-15T14:29:16.379Z,6.63
2017-08-15T14:31:43.937Z,5.30
2017-08-15T14:34:11.855Z,6.13
2017-08-15T14:36:39.411Z,5.33
2017-08-15T14:39:07.016Z,5.97
2017-08-15T14:41:35.374Z,5.80
2017-08-15T14:44:02.935Z,5.87
2017-08-15T14:46:31.369Z,5.73
2017-08-15T14:48:58.961Z,5.30
2017-08-15T14:51:26.526Z,6.30
2017-08-15T14:53:54.125Z,6.10
2017-08-15T14:56:21.680Z,5.10
2017-08-15T14:58:49.242Z,5.17
2017-08-15T15:01:16.836Z,5.33
2017-08-15T15:03:44.399Z,5.77
2017-08-15T15:06:11.985Z,6.03
2017-08-15T15:08:39.584Z,5.00
2017-08-15T15:11:07.141Z,5.60
2017-08-15T15:13:35.476Z,6.53
2017-08-15T15:16:03.058Z,5.23
2017-08-15T15:18:30.661Z,5.90
2017-08-15T15:21:04.345Z,4.80
2017-08-15T15:23:33.918Z,6.17
2017-08-15T15:26:01.494Z,6.30
2017-08-15T15:28:29.854Z,6.67
2017-08-15T15:30:57.401Z,5.67
2017-08-15T15:33:25.698Z,6.10
2017-08-15T15:35:53.292Z,5.60
2017-08-15T15:38:20.859Z,5.80
2017-08-15T15:40:48.441Z,5.00
2017-08-15T15:43:16.041Z,6.50
2017-08-15T15:45:43.603Z,5.13
2017-08-15T15:48:11.197Z,5.83
2017-08-15T15:50:38.804Z,5.73
2017-08-15T15:53:20.412Z,4.63
2017-08-15T15:55:48.992Z,4.80
2017-08-15T15:58:16.555Z,5.43
2017-08-15T16:00:44.162Z,4.73
2017-08-15T16:03:11.711Z,5.10
2017-08-15T16:05:39.258Z,5.07
2017-08-15T16:08:07.602Z,5.27
2017-08-15T16:10:35.153Z,5.50
2017-08-15T16:13:02.743Z,6.17
2017-08-15T16:15:31.071Z,5.50
2017-08-15T16:17:58.671Z,5.10
2017-08-15T16:20:26.226Z,6.00
2017-08-15T16:22:53.773Z,5.33
2017-08-15T16:25:21.367Z,4.73
2017-08-15T16:27:49.693Z,5.07
2017-08-15T16:30:17.287Z,5.03
2017-08-15T16:32:44.850Z,5.80
2017-08-15T16:35:12.400Z,5.20
2017-08-15T16:37:39.993Z,5.10
2017-08-15T16:40:07.553Z,5.77
2017-08-15T16:42:35.149Z,5.93
2017-08-15T16:45:02.711Z,5.73
2017-08-15T16:47:30.303Z,5.70
2017-08-15T16:49:57.866Z,5.50
2017-08-15T16:52:25.428Z,5.53
2017-08-15T16:54:53.036Z,6.10
2017-08-15T16:57:20.577Z,5.90
2017-08-15T16:59:48.132Z,5.50
2017-08-15T17:02:15.726Z,5.17
2017-08-15T17:04:49.168Z,5.70
2017-08-15T17:07:16.776Z,5.90
2017-08-15T17:09:44.393Z,5.23
2017-08-15T17:12:12.298Z,5.20
2017-08-15T17:14:39.900Z,6.00
2017-08-15T17:17:07.494Z,5.30
2017-08-15T17:19:35.852Z,6.07
2017-08-15T17:22:03.443Z,7.27
2017-08-15T17:24:30.990Z,6.23
2017-08-15T17:26:59.319Z,5.50
2017-08-15T17:29:26.913Z,5.53
2017-08-15T17:31:54.506Z,5.90
2017-08-15T17:34:22.070Z,6.00
2017-08-15T17:39:24.231Z,6.10
2017-08-15T17:41:52.573Z,5.20
2017-08-15T17:44:20.157Z,5.53
2017-08-15T17:46:47.720Z,6.57
2017-08-15T17:49:15.307Z,6.43
2017-08-15T17:51:42.856Z,5.57
2017-08-15T17:54:11.184Z,6.10
2017-08-15T17:56:38.761Z,6.10
2017-08-15T17:59:06.311Z,6.40
2017-08-15T18:01:33.902Z,6.30
2017-08-15T18:04:01.452Z,5.87
2017-08-15T18:06:28.999Z,6.23
2017-08-15T18:08:56.600Z,7.27
2017-08-15T18:11:24.966Z,7.47
2017-08-15T18:13:53.346Z,6.67
2017-08-15T18:16:21.679Z,7.50
2017-08-15T18:18:49.229Z,6.40
2017-08-15T18:21:16.826Z,7.60
2017-08-15T18:23:44.386Z,6.87
2017-08-15T18:26:11.977Z,7.07
2017-08-15T18:28:40.350Z,6.77
2017-08-15T18:31:09.024Z,7.40
2017-08-15T18:33:36.677Z,7.37
2017-08-15T18:36:04.276Z,7.03
2017-08-15T18:38:31.848Z,7.37
2017-08-15T18:40:59.411Z,7.37
2017-08-15T18:43:28.038Z,7.17
2017-08-15T18:45:55.652Z,6.23
2017-08-15T18:48:23.210Z,7.27
2017-08-15T18:50:50.802Z,6.80
2017-08-15T18:53:18.379Z,6.80
2017-08-15T18:55:45.944Z,7.20
2017-08-15T18:58:13.536Z,6.07
2017-08-15T19:00:41.087Z,7.73
2017-08-15T19:03:09.443Z,7.10
2017-08-15T19:05:37.011Z,13.90
2017-08-15T19:08:04.613Z,19.33
2017-08-15T19:10:32.220Z,11.63
2017-08-15T19:12:59.935Z,8.57
2017-08-15T19:15:27.548Z,7.47
2017-08-15T19:17:56.607Z,6.97
2017-08-15T19:20:24.200Z,8.00
2017-08-15T19:22:51.769Z,7.97
2017-08-15T19:25:20.159Z,7.13
2017-08-15T19:27:49.169Z,7.33
2017-08-15T19:30:16.747Z,7.03
2017-08-15T19:32:44.340Z,7.30
2017-08-15T19:35:11.948Z,8.23
2017-08-15T19:37:39.510Z,6.63
2017-08-15T19:40:08.859Z,7.40
2017-08-15T19:42:36.609Z,7.13
2017-08-15T19:45:04.152Z,7.57
2017-08-15T19:47:31.744Z,6.90
2017-08-15T19:50:01.961Z,7.93
2017-08-15T19:52:29.832Z,7.67
2017-08-15T19:54:58.111Z,8.17
2017-08-15T19:57:25.700Z,8.87
2017-08-15T19:59:54.089Z,8.90
2017-08-15T20:02:22.447Z,9.90
2017-08-15T20:04:50.055Z,9.73
2017-08-15T20:07:17.652Z,10.00
2017-08-15T20:09:45.224Z,11.40
2017-08-15T20:12:13.658Z,10.00
2017-08-15T20:14:41.221Z,11.63
2017-08-15T20:17:08.818Z,12.23
2017-08-15T20:19:36.378Z,10.63
2017-08-15T20:22:04.217Z,10.80
2017-08-15T20:24:31.867Z,11.60
2017-08-15T20:26:59.747Z,12.60
2017-08-15T20:29:27.333Z,12.23
2017-08-15T20:31:54.903Z,10.30
2017-08-15T20:34:23.285Z,10.70
2017-08-15T20:36:50.877Z,11.30
2017-08-15T20:39:18.595Z,11.83
2017-08-15T20:41:46.154Z,12.20
2017-08-15T20:44:17.456Z,7.77
2017-08-15T20:46:45.015Z,5.83
2017-08-15T20:49:12.600Z,4.53
2017-08-15T20:51:40.155Z,3.87
2017-08-15T20:54:07.750Z,2.73
2017-08-15T20:56:35.311Z,3.40
2017-08-15T20:59:02.934Z,2.83
2017-08-15T21:01:31.622Z,3.40
2017-08-15T21:03:59.175Z,3.20
2017-08-15T21:06:26.778Z,2.47
2017-08-15T21:08:54.356Z,2.07
2017-08-15T21:11:21.964Z,2.70
2017-08-15T21:13:49.527Z,2.37
2017-08-15T21:16:17.089Z,2.90
2017-08-15T21:18:44.667Z,2.50
2017-08-15T21:21:12.214Z,2.20
2017-08-15T21:23:39.853Z,3.50
2017-08-15T21:26:07.451Z,2.90
2017-08-15T21:28:35.038Z,3.20
2017-08-15T21:31:02.601Z,3.40
2017-08-15T21:33:31.462Z,3.50
2017-08-15T21:35:59.272Z,3.67
2017-08-15T21:38:28.319Z,3.70
2017-08-15T21:40:55.914Z,3.77
2017-08-15T21:43:23.462Z,4.43
2017-08-15T21:45:51.789Z,3.47
2017-08-15T21:48:19.382Z,3.70
2017-08-15T21:50:46.936Z,4.13
2017-08-15T21:53:14.521Z,3.47
2017-08-15T21:55:42.866Z,3.50
2017-08-15T21:58:11.269Z,3.80
2017-08-15T22:00:38.876Z,4.50
2017-08-15T22:03:06.439Z,3.53
2017-08-15T22:05:33.985Z,4.47
2017-08-15T22:08:01.580Z,3.53
2017-08-15T22:10:29.142Z,4.07
2017-08-15T22:12:56.727Z,3.90
2017-08-15T22:15:24.283Z,4.60
2017-08-15T22:17:51.872Z,4.60
2017-08-15T22:20:19.425Z,4.60
2017-08-15T22:22:47.025Z,4.90
2017-08-15T22:25:14.579Z,4.30
2017-08-15T22:27:42.142Z,4.03
2017-08-15T22:30:09.750Z,4.10
2017-08-15T22:32:37.312Z,3.77
2017-08-15T22:35:04.906Z,3.90
2017-08-15T22:37:32.498Z,3.80
2017-08-15T22:40:00.062Z,4.33
2017-08-15T22:42:27.654Z,4.47
2017-08-15T22:44:55.217Z,3.60
2017-08-15T22:47:22.810Z,4.20
2017-08-15T22:49:50.406Z,4.60
2017-08-15T22:52:17.967Z,4.27
2017-08-15T22:54:45.559Z,4.30
2017-08-15T22:57:13.121Z,4.33
2017-08-15T22:59:40.670Z,4.63
2017-08-15T23:02:08.262Z,4.47
2017-08-15T23:04:35.827Z,5.70
2017-08-15T23:07:03.418Z,5.23
2017-08-15T23:09:30.981Z,4.93
2017-08-15T23:11:59.384Z,5.70
2017-08-15T23:14:26.946Z,6.60
2017-08-15T23:16:54.543Z,8.07
2017-08-15T23:19:22.106Z,9.20
2017-08-15T23:21:49.710Z,8.77
2017-08-15T23:24:17.278Z,10.80
2017-08-15T23:26:44.835Z,10.93
2017-08-15T23:29:12.429Z,11.20
2017-08-15T23:31:39.991Z,11.90
2017-08-15T23:34:07.600Z,16.20
2017-08-15T23:36:35.163Z,17.90
2017-08-15T23:39:02.726Z,16.90
2017-08-15T23:41:30.323Z,18.63
2017-08-15T23:43:57.871Z,20.90
2017-08-15T23:46:25.458Z,18.57
2017-08-15T23:48:53.023Z,20.57
2017-08-15T23:51:20.599Z,18.60
2017-08-15T23:53:48.206Z,19.60
2017-08-15T23:56:15.771Z,20.90
2017-08-15T23:58:43.334Z,19.23
